createdAt,value
2023-06-17T00:01:03.793Z,17.25
2023-06-17T00:06:05.041Z,16.91
2023-06-17T00:11:06.349Z,17.12
2023-06-17T00:16:07.684Z,17.23
2023-06-17T00:21:10.102Z,17.23
2023-06-17T00:26:11.613Z,17.29
2023-06-17T00:31:12.910Z,17.06
2023-06-17T00:36:14.210Z,16.90
2023-06-17T00:41:15.540Z,16.62
2023-06-17T00:46:16.850Z,16.76
2023-06-17T00:51:18.155Z,16.70
2023-06-17T00:56:19.679Z,16.72
2023-06-17T01:01:20.942Z,16.75
2023-06-17T01:06:25.258Z,16.77
2023-06-17T01:11:26.494Z,16.72
2023-06-17T01:16:27.808Z,16.77
2023-06-17T01:21:32.588Z,16.48
2023-06-17T01:26:33.831Z,16.80
2023-06-17T01:31:35.239Z,16.86
2023-06-17T01:36:36.504Z,16.83
2023-06-17T01:41:37.775Z,16.88
2023-06-17T01:46:39.090Z,16.85
2023-06-17T01:51:40.318Z,17.02
2023-06-17T01:56:41.590Z,16.56
2023-06-17T02:01:42.849Z,16.76
2023-06-17T02:06:44.081Z,16.48
2023-06-17T02:11:45.553Z,16.62
2023-06-17T02:16:46.790Z,16.73
2023-06-17T02:21:47.991Z,16.59
2023-06-17T02:26:50.610Z,16.40
2023-06-17T02:31:52.601Z,16.50
2023-06-17T02:36:57.565Z,16.47
2023-06-17T02:41:58.980Z,16.39
2023-06-17T02:47:00.523Z,16.37
2023-06-17T02:52:01.833Z,16.37
2023-06-17T02:57:03.304Z,16.47
2023-06-17T03:02:04.722Z,16.32
2023-06-17T03:07:06.016Z,16.36
2023-06-17T03:12:07.245Z,16.26
2023-06-17T03:17:09.040Z,15.88
2023-06-17T03:22:10.546Z,15.83
2023-06-17T03:27:12.298Z,16.19
2023-06-17T03:32:13.549Z,16.00
2023-06-17T03:37:14.826Z,16.13
2023-06-17T03:42:16.108Z,15.93
2023-06-17T03:47:17.351Z,16.06
2023-06-17T03:52:18.599Z,16.06
2023-06-17T03:57:19.814Z,16.16
2023-06-17T04:02:21.117Z,16.01
2023-06-17T04:07:22.609Z,16.01
2023-06-17T04:12:23.976Z,15.98
2023-06-17T04:17:25.245Z,15.91
2023-06-17T04:22:26.469Z,15.81
2023-06-17T04:27:27.807Z,15.81
2023-06-17T04:32:29.659Z,15.78
2023-06-17T04:37:31.024Z,15.76
2023-06-17T04:42:34.678Z,15.91
2023-06-17T04:47:36.531Z,16.53
2023-06-17T04:52:37.925Z,16.98
2023-06-17T04:57:39.274Z,17.23
2023-06-17T05:02:40.955Z,17.35
2023-06-17T05:07:42.487Z,17.52
2023-06-17T05:12:43.754Z,17.66
2023-06-17T05:17:45.366Z,17.47
2023-06-17T05:22:46.691Z,17.38
2023-06-17T05:27:47.930Z,17.26
2023-06-17T05:32:49.288Z,17.35
2023-06-17T05:37:50.575Z,17.48
2023-06-17T05:42:51.958Z,17.62
2023-06-17T05:47:53.432Z,17.81
2023-06-17T05:52:54.725Z,17.83
2023-06-17T05:57:55.955Z,17.78
2023-06-17T06:02:57.264Z,17.94
2023-06-17T06:07:58.540Z,18.09
2023-06-17T06:13:00.586Z,18.26
2023-06-17T06:18:01.883Z,18.45
2023-06-17T06:23:03.337Z,18.47
2023-06-17T06:28:04.762Z,18.53
2023-06-17T06:33:07.741Z,18.81
2023-06-17T06:38:09.021Z,18.92
2023-06-17T06:43:10.292Z,18.86
2023-06-17T06:48:11.621Z,19.31
2023-06-17T06:53:13.606Z,19.44
2023-06-17T06:58:14.799Z,19.55
2023-06-17T07:03:16.184Z,19.23
2023-06-17T07:08:17.453Z,19.80
2023-06-17T07:13:18.697Z,19.78
2023-06-17T07:18:19.976Z,20.05
2023-06-17T07:23:21.307Z,20.11
2023-06-17T07:28:23.104Z,20.38
2023-06-17T07:33:24.459Z,20.58
2023-06-17T07:38:26.221Z,20.91
2023-06-17T07:43:27.412Z,21.07
2023-06-17T07:48:29.071Z,21.24
2023-06-17T07:53:30.354Z,21.58
2023-06-17T07:58:31.634Z,21.57
2023-06-17T08:03:33.033Z,21.97
2023-06-17T08:08:34.361Z,21.93
2023-06-17T08:13:35.726Z,22.59
2023-06-17T08:18:36.969Z,22.46
2023-06-17T08:23:38.208Z,22.87
2023-06-17T08:28:39.462Z,22.40
2023-06-17T08:33:40.703Z,22.52
2023-06-17T08:38:41.960Z,21.87
2023-06-17T08:43:43.207Z,21.89
2023-06-17T08:48:44.502Z,21.87
2023-06-17T08:53:45.956Z,21.97
2023-06-17T08:58:48.526Z,22.47
2023-06-17T09:03:49.808Z,22.68
2023-06-17T09:08:51.676Z,22.71
2023-06-17T09:13:53.121Z,22.71
2023-06-17T09:18:54.471Z,22.62
2023-06-17T09:23:55.836Z,22.75
2023-06-17T09:28:57.112Z,23.14
2023-06-17T09:33:58.396Z,23.34
2023-06-17T09:38:59.696Z,23.33
2023-06-17T09:44:01.347Z,23.78
2023-06-17T09:49:03.807Z,23.44
2023-06-17T09:54:05.296Z,22.94
2023-06-17T09:59:10.761Z,23.20
2023-06-17T10:04:12.113Z,23.89
2023-06-17T10:09:14.804Z,24.14
2023-06-17T10:14:16.129Z,24.73
2023-06-17T10:19:17.994Z,24.68
2023-06-17T10:24:19.562Z,24.53
2023-06-17T10:29:21.741Z,24.36
2023-06-17T10:34:23.237Z,24.64
2023-06-17T10:39:24.533Z,24.96
2023-06-17T10:44:26.695Z,25.26
2023-06-17T10:49:27.936Z,25.81
2023-06-17T10:54:29.208Z,26.11
2023-06-17T10:59:30.451Z,25.05
2023-06-17T11:04:33.029Z,24.80
2023-06-17T11:09:34.561Z,24.88
2023-06-17T11:14:38.017Z,24.96
2023-06-17T11:19:39.303Z,24.49
2023-06-17T11:24:41.030Z,23.88
2023-06-17T11:29:46.235Z,24.54
2023-06-17T11:34:47.510Z,25.51
2023-06-17T11:39:48.916Z,25.68
2023-06-17T11:44:50.244Z,26.38
2023-06-17T11:49:51.842Z,25.79
2023-06-17T11:54:53.519Z,26.41
2023-06-17T11:59:54.822Z,26.72
2023-06-17T12:04:56.500Z,26.05
2023-06-17T12:09:57.917Z,27.25
2023-06-17T12:15:00.907Z,27.09
2023-06-17T12:20:06.858Z,26.91
2023-06-17T12:25:08.100Z,27.39
2023-06-17T12:30:09.396Z,27.77
2023-06-17T12:35:15.687Z,27.92
2023-06-17T12:40:17.299Z,27.06
2023-06-17T12:45:18.984Z,26.81
2023-06-17T12:50:20.537Z,27.34
2023-06-17T12:55:21.997Z,27.84
2023-06-17T13:00:23.681Z,28.74
2023-06-17T13:05:24.994Z,28.98
2023-06-17T13:10:26.262Z,28.73
2023-06-17T13:15:30.624Z,28.89
2023-06-17T13:20:31.911Z,29.10
2023-06-17T13:25:33.179Z,29.80
2023-06-17T13:30:34.471Z,29.85
2023-06-17T13:35:36.176Z,28.77
2023-06-17T13:40:37.437Z,28.89
2023-06-17T13:45:39.242Z,28.97
2023-06-17T13:50:40.509Z,29.17
2023-06-17T13:55:42.300Z,29.87
2023-06-17T14:00:43.556Z,30.07
2023-06-17T14:05:44.922Z,28.30
2023-06-17T14:10:46.242Z,28.44
2023-06-17T14:15:47.511Z,29.41
2023-06-17T14:20:48.790Z,29.01
2023-06-17T14:25:50.295Z,29.37
2023-06-17T14:30:52.158Z,28.60
2023-06-17T14:35:53.436Z,27.42
2023-06-17T14:40:54.657Z,26.99
2023-06-17T14:45:55.915Z,28.12
2023-06-17T14:50:57.162Z,27.82
2023-06-17T14:55:58.402Z,27.79
2023-06-17T15:00:59.700Z,28.99
2023-06-17T15:06:00.950Z,27.74
2023-06-17T15:11:02.269Z,27.61
2023-06-17T15:16:03.541Z,28.55
2023-06-17T15:21:04.763Z,29.11
2023-06-17T15:26:06.040Z,28.43
2023-06-17T15:31:08.236Z,28.89
2023-06-17T15:36:09.519Z,29.51
2023-06-17T15:41:10.846Z,29.81
2023-06-17T15:46:12.109Z,30.23
2023-06-17T15:51:13.332Z,29.82
2023-06-17T15:56:14.578Z,29.87
2023-06-17T16:01:15.983Z,29.94
2023-06-17T16:06:17.260Z,28.98
2023-06-17T16:11:19.575Z,28.63
2023-06-17T16:16:21.012Z,29.93
2023-06-17T16:21:22.516Z,29.94
2023-06-17T16:26:23.788Z,30.38
2023-06-17T16:31:25.040Z,30.45
2023-06-17T16:36:28.263Z,29.22
2023-06-17T16:41:31.243Z,28.93
2023-06-17T16:46:32.720Z,27.80
2023-06-17T16:51:34.029Z,27.67
2023-06-17T16:56:35.529Z,28.70
2023-06-17T17:01:36.991Z,28.89
2023-06-17T17:06:38.375Z,29.29
2023-06-17T17:11:40.815Z,29.64
2023-06-17T17:16:42.161Z,30.07
2023-06-17T17:21:43.454Z,29.82
2023-06-17T17:26:44.703Z,29.56
2023-06-17T17:31:46.013Z,29.55
2023-06-17T17:36:47.219Z,29.23
2023-06-17T17:41:48.420Z,28.72
2023-06-17T17:46:49.664Z,28.92
2023-06-17T17:51:50.930Z,28.91
2023-06-17T17:56:52.211Z,28.89
2023-06-17T18:01:53.521Z,28.65
2023-06-17T18:06:54.776Z,28.35
2023-06-17T18:11:55.987Z,28.05
2023-06-17T18:16:57.320Z,27.85
2023-06-17T18:21:58.736Z,27.84
2023-06-17T18:27:00.002Z,27.76
2023-06-17T18:32:01.461Z,27.55
2023-06-17T18:37:02.697Z,27.04
2023-06-17T18:42:03.944Z,26.80
2023-06-17T18:47:05.247Z,26.51
2023-06-17T18:52:06.536Z,26.13
2023-06-17T18:57:07.869Z,25.96
2023-06-17T19:02:09.174Z,25.48
2023-06-17T19:07:10.545Z,25.20
2023-06-17T19:12:11.774Z,24.96
2023-06-17T19:17:13.092Z,24.48
2023-06-17T19:22:14.433Z,24.16
2023-06-17T19:27:15.976Z,23.80
2023-06-17T19:32:17.190Z,24.00
2023-06-17T19:37:18.420Z,23.92
2023-06-17T19:42:19.960Z,23.64
2023-06-17T19:47:21.168Z,23.12
2023-06-17T19:52:22.426Z,22.93
2023-06-17T19:57:23.725Z,22.83
2023-06-17T20:02:25.022Z,22.40
2023-06-17T20:07:26.226Z,22.34
2023-06-17T20:12:27.486Z,21.74
2023-06-17T20:17:28.747Z,21.25
2023-06-17T20:22:30.019Z,21.41
2023-06-17T20:27:31.320Z,21.89
2023-06-17T20:32:32.721Z,21.84
2023-06-17T20:37:34.115Z,21.38
2023-06-17T20:42:36.862Z,21.47
2023-06-17T20:47:38.294Z,20.94
2023-06-17T20:52:39.610Z,20.11
2023-06-17T20:57:41.213Z,20.68
2023-06-17T21:02:42.525Z,20.06
2023-06-17T21:07:44.986Z,20.26
2023-06-17T21:12:46.559Z,20.43
2023-06-17T21:17:47.925Z,20.24
2023-06-17T21:22:49.192Z,20.31
2023-06-17T21:27:50.495Z,20.34
2023-06-17T21:32:51.825Z,20.26
2023-06-17T21:37:53.243Z,19.94
2023-06-17T21:42:54.552Z,19.81
2023-06-17T21:47:55.861Z,19.53
2023-06-17T21:52:57.310Z,19.63
2023-06-17T21:57:58.634Z,19.75
2023-06-17T22:03:00.091Z,19.50
2023-06-17T22:08:01.396Z,19.13
2023-06-17T22:13:02.669Z,18.79
2023-06-17T22:18:04.028Z,18.34
2023-06-17T22:23:05.425Z,18.25
2023-06-17T22:28:06.674Z,17.93
2023-06-17T22:33:08.121Z,18.24
2023-06-17T22:38:09.482Z,18.06
2023-06-17T22:43:11.085Z,18.39
2023-06-17T22:48:12.329Z,18.03
2023-06-17T22:53:13.618Z,18.25
2023-06-17T22:58:14.836Z,18.13
2023-06-17T23:03:16.065Z,17.80
2023-06-17T23:08:17.386Z,18.10
2023-06-17T23:13:18.645Z,18.14
2023-06-17T23:18:19.875Z,17.91
2023-06-17T23:23:21.938Z,17.72
2023-06-17T23:28:24.185Z,17.46
2023-06-17T23:33:26.578Z,17.55
2023-06-17T23:38:30.382Z,17.79
2023-06-17T23:43:31.856Z,17.86
2023-06-17T23:48:33.205Z,17.20
2023-06-17T23:53:34.779Z,16.81
2023-06-17T23:58:36.062Z,16.83
